• Join FlightAware (Why Join?)
  • Login
  • US Flag 
04:02AM EST


 

Airport Tracker/Info


-or-


 

Live Flight TrackerFlight Track Log ✈ AAY844 ✈ 30-Jun-2014 ✈ KPIE - KSWF

Flight Track Log - Related Links

Times and Time Zones

All times are in EDT time to prevent confusion due to time zone crossing. See the AAY844 flight status page for this flight to view local times or setup timezone preferences in your user account.

Time Position Orientation Groundspeed Altitude Reporting Facility
EDT Latitude Longitude Course Direction KTS MPH feet Rate Location/Type
03:40PM 27.9333 -82.6833 24° Northeast 159 183 900  Level Tampa TRACON
03:40PM 27.9667 -82.6667 24° Northeast 206 237 2,200 1,920 Climbing Tampa TRACON
03:41PM 28.0333 -82.6500 12° North 269 310 4,400 2,460 Climbing Tampa TRACON
03:44PM 28.1844 -82.6250 North 261 300 10,500 2,160 Climbing Miami Center
03:45PM 28.2875 -82.6286 358° North 313 360 11,800 1,260 Climbing Miami Center
03:46PM 28.3925 -82.6328 358° North 370 426 13,200 1,740 Climbing Miami Center
03:47PM 28.5044 -82.6353 359° North 399 459 15,400 1,920 Climbing Miami Center
03:48PM 28.6442 -82.6419 358° North 398 458 17,600 1,620 Climbing Jacksonville Center
03:49PM 28.7611 -82.6439 359° North 411 473 19,100 1,560 Climbing Jacksonville Center
03:50PM 28.8822 -82.6458 359° North 421 484 20,800 1,560 Climbing Jacksonville Center
03:51PM 29.0053 -82.6506 358° North 431 496 22,300 1,320 Climbing Jacksonville Center
03:52PM 29.1347 -82.6547 358° North 443 510 23,500 1,260 Climbing Jacksonville Center
03:53PM 29.2642 -82.6569 359° North 453 521 24,900 1,500 Climbing Jacksonville Center
03:54PM 29.3936 -82.6614 358° North 460 529 26,500 1,560 Climbing Jacksonville Center
03:55PM 29.5231 -82.6539 North 460 529 28,100 1,620 Climbing Jacksonville Center
03:56PM 29.6608 -82.6369 North 460 529 29,800 1,260 Climbing Jacksonville Center
03:57PM 29.7881 -82.6222 North 454 522 30,700 540 Climbing Jacksonville Center
03:58PM 29.9114 -82.6097 North 454 522 30,900 60 Climbing Jacksonville Center
03:59PM 30.0114 -82.6000 North 449 517 30,900  Level Jacksonville Center
04:00PM 30.1472 -82.5900 North 442 509 31,000  Climbing Jacksonville Center
04:01PM 30.2725 -82.5775 North 442 509 30,900 -60 Descending Jacksonville Center
04:02PM 30.3956 -82.5675 North 442 509 30,900  Level Jacksonville Center
04:03PM 30.5144 -82.5431 10° North 442 509 31,000  Climbing Jacksonville Center
04:04PM 30.6167 -82.4581 36° Northeast 428 493 31,000 -60 Level Jacksonville Center
04:05PM 30.7228 -82.3658 37° Northeast 428 493 30,900 -60 Descending Jacksonville Center
04:06PM 30.8203 -82.2758 38° Northeast 435 501 30,900  Level Jacksonville Center
04:07PM 30.9181 -82.1903 37° Northeast 440 506 31,000  Climbing Jacksonville Center
04:08PM 31.0178 -82.1047 36° Northeast 440 506 30,900 -60 Descending Jacksonville Center
04:09PM 31.1175 -82.0142 38° Northeast 448 516 30,900  Level Jacksonville Center
04:10PM 31.2150 -81.9258 38° Northeast 448 516 31,000  Climbing Jacksonville Center
04:11PM 31.3144 -81.8372 37° Northeast 444 511 30,900  Descending Jacksonville Center
04:12PM 31.4119 -81.7483 38° Northeast 444 511 31,000  Climbing Jacksonville Center
04:13PM 31.5031 -81.6669 37° Northeast 444 511 31,000  Level Jacksonville Center
04:14PM 31.6125 -81.5703 37° Northeast 442 509 31,000  Level Jacksonville Center
04:15PM 31.7097 -81.4811 38° Northeast 442 509 31,000  Level Jacksonville Center
04:16PM 31.8008 -81.3989 37° Northeast 444 511 31,000 -60 Level Jacksonville Center
04:17PM 31.9100 -81.2969 38° Northeast 451 519 30,900 -60 Descending Jacksonville Center
04:18PM 32.0114 -81.2094 36° Northeast 451 519 30,900  Level Jacksonville Center
04:19PM 32.1103 -81.1167 38° Northeast 456 525 30,900  Level Jacksonville Center
04:20PM 32.2133 -81.0289 36° Northeast 461 531 31,000  Climbing Jacksonville Center
04:21PM 32.2997 -80.9461 39° Northeast 455 524 31,000  Level Jacksonville Center
04:22PM 32.4089 -80.8428 39° Northeast 450 518 31,000 -60 Level Jacksonville Center
04:23PM 32.5094 -80.7494 38° Northeast 450 518 30,900  Descending Jacksonville Center
04:24PM 32.6081 -80.6583 38° Northeast 455 524 31,000  Climbing Jacksonville Center
04:25PM 32.7067 -80.5694 37° Northeast 450 518 31,000  Level Jacksonville Center
04:26PM 32.8053 -80.4756 39° Northeast 450 518 31,000 -60 Level Jacksonville Center
04:27PM 32.9036 -80.3836 38° Northeast 455 524 30,900  Descending Jacksonville Center
04:28PM 32.9978 -80.2944 38° Northeast 468 539 31,000  Climbing Jacksonville Center
04:29PM 33.0942 -80.2047 38° Northeast 458 527 31,000  Level Jacksonville Center
04:30PM 33.1944 -80.1125 38° Northeast 450 518 31,000 -60 Level Jacksonville Center
04:31PM 33.2903 -80.0175 40° Northeast 456 525 30,900 -60 Descending Jacksonville Center
04:32PM 33.3903 -79.9247 38° Northeast 456 525 30,900  Level Jacksonville Center
04:33PM 33.4842 -79.8319 39° Northeast 456 525 31,000  Climbing Jacksonville Center
04:34PM 33.5822 -79.7414 38° Northeast 451 519 30,900 -60 Descending Jacksonville Center
04:35PM 33.6819 -79.6456 39° Northeast 451 519 30,900  Level Jacksonville Center
04:36PM 33.7797 -79.5519 39° Northeast 451 519 31,000  Climbing Jacksonville Center
04:37PM 33.8753 -79.4583 39° Northeast 451 519 30,900  Descending Jacksonville Center
04:38PM 33.9769 -79.3617 38° Northeast 442 509 31,000  Climbing Jacksonville Center
04:39PM 34.0764 -79.2672 38° Northeast 442 509 31,000  Level Jacksonville Center
04:41PM 34.2656 -79.0775 40° Northeast 448 516 31,000 -60 Level Washington Center
04:42PM 34.3608 -78.9822 40° Northeast 447 514 30,900  Descending Washington Center
04:43PM 34.4567 -78.8878 39° Northeast 446 513 31,000  Climbing Washington Center
04:44PM 34.5631 -78.7950 36° Northeast 445 512 31,000  Level Washington Center
04:45PM 34.6667 -78.7181 31° Northeast 442 509 31,000  Level Washington Center
04:46PM 34.7692 -78.6394 32° Northeast 440 506 31,000  Level Washington Center
04:47PM 34.8728 -78.5608 32° Northeast 441 507 31,000  Level Washington Center
04:48PM 34.9969 -78.4664 32° Northeast 442 509 31,000  Level Washington Center
04:49PM 35.0997 -78.3861 33° Northeast 443 510 31,000  Level Washington Center
04:50PM 35.2028 -78.3067 32° Northeast 442 509 31,000  Level Washington Center
04:51PM 35.3036 -78.2269 33° Northeast 442 509 31,000  Level Washington Center
04:52PM 35.4272 -78.1317 32° Northeast 442 509 31,000  Level Washington Center
04:54PM 35.5294 -78.0531 32° Northeast 442 509 31,000  Level Washington Center
04:55PM 35.6325 -77.9725 32° Northeast 442 509 31,000  Level Washington Center
04:56PM 35.7369 -77.8928 32° Northeast 442 509 31,000  Level Washington Center
04:57PM 35.8408 -77.8119 32° Northeast 442 509 31,000  Level Washington Center
04:58PM 35.9631 -77.7128 33° Northeast 442 509 31,000  Level Washington Center
04:59PM 36.0631 -77.6239 36° Northeast 442 509 31,000  Level Washington Center
05:00PM 36.1611 -77.5331 37° Northeast 442 509 31,000  Level Washington Center
05:01PM 36.2567 -77.4406 38° Northeast 442 509 31,000  Level Washington Center
05:02PM 36.3547 -77.3508 36° Northeast 442 509 31,000  Level Washington Center
05:03PM 36.4714 -77.2406 37° Northeast 442 509 31,000  Level Washington Center
05:04PM 36.5686 -77.1483 37° Northeast 442 509 31,000  Level Washington Center
05:05PM 36.6658 -77.0567 37° Northeast 442 509 31,000  Level Washington Center
05:06PM 36.7633 -76.9639 37° Northeast 443 510 31,000  Level Washington Center
05:07PM 36.8636 -76.8750 35° Northeast 447 514 31,000  Level Washington Center
05:08PM 36.9822 -76.7667 36° Northeast 446 513 31,000  Level Washington Center
05:09PM 37.0819 -76.6786 35° Northeast 446 513 31,000  Level Washington Center
05:10PM 37.1808 -76.5875 36° Northeast 446 513 31,000  Level Washington Center
05:11PM 37.2994 -76.4800 36° Northeast 446 513 31,000  Level Washington Center
05:12PM 37.3986 -76.3897 36° Northeast 446 513 31,000  Level Washington Center
05:13PM 37.4972 -76.3000 36° Northeast 445 512 31,000  Level Washington Center
05:14PM 37.5958 -76.2086 36° Northeast 445 512 31,000 -60 Level Washington Center
05:15PM 37.7072 -76.1061 36° Northeast 444 511 30,900  Descending Washington Center
05:16PM 37.8125 -76.0089 36° Northeast 444 511 31,000  Climbing Washington Center
05:17PM 37.9094 -75.9181 36° Northeast 441 507 31,000  Level Washington Center
05:18PM 38.0072 -75.8278 36° Northeast 441 507 31,000  Level Washington Center
05:19PM 38.1033 -75.7383 36° Northeast 437 503 31,000  Level Washington Center
05:20PM 38.2197 -75.6292 36° Northeast 437 503 31,000  Level Washington Center
05:21PM 38.3164 -75.5372 37° Northeast 437 503 31,000 -60 Level Washington Center
05:23PM 38.4214 -75.4767 24° Northeast 436 502 30,900 -60 Descending Washington Center
05:24PM 38.5367 -75.4308 17° North 435 501 30,900  Level Washington Center
05:25PM 38.6511 -75.3825 18° North 435 501 30,900  Level Washington Center
05:26PM 38.7872 -75.3242 18° North 432 497 31,000  Climbing Washington Center
05:27PM 38.9008 -75.2767 18° North 431 496 30,900 -60 Descending Washington Center
05:28PM 39.0131 -75.2286 18° North 431 496 30,900  Level Washington Center
05:29PM 39.1217 -75.1678 23° Northeast 429 494 31,000  Climbing Washington Center
05:30PM 39.2136 -75.0681 40° Northeast 431 496 31,000 -60 Level Washington Center
05:31PM 39.3239 -74.9481 40° Northeast 433 498 30,900  Descending Washington Center
05:32PM 39.4144 -74.8497 40° Northeast 430 495 31,000  Climbing Washington Center
05:33PM 39.5061 -74.7481 41° Northeast 432 497 30,900 -60 Descending Washington Center
05:34PM 39.5969 -74.6481 40° Northeast 434 499 30,900 -180 Level Washington Center
05:35PM 39.7061 -74.5267 41° Northeast 434 499 30,600 -540 Descending Washington Center
05:36PM 39.7975 -74.4264 40° Northeast 436 502 29,800 -1,680 Descending Washington Center
05:37PM 39.8883 -74.3258 40° Northeast 433 498 27,200 -1,920 Descending Washington Center
05:38PM 39.9775 -74.2272 40° Northeast 425 489 25,800 -1,080 Descending Washington Center
05:39PM 40.0628 -74.1311 41° Northeast 410 472 25,000 -420 Descending Washington Center
05:40PM 40.1561 -74.0297 40° Northeast 412 474 25,000  Level New York Center
05:41PM 40.2467 -73.9253 41° Northeast 418 481 25,000 -240 Level New York Center
05:42PM 40.3411 -73.8208 40° Northeast 424 488 24,600 -720 Descending New York Center
05:43PM 40.4247 -73.7264 41° Northeast 430 495 23,600 -1,200 Descending New York Center
05:45PM 40.6419 -73.4792 41° Northeast 431 496 20,700 -1,260 Descending Washington Center
05:46PM 40.7308 -73.3769 41° Northeast 428 493 19,500 -900 Descending Washington Center
05:47PM 40.8158 -73.2764 42° Northeast 419 482 19,000 -660 Descending Boston Center
05:48PM 40.9047 -73.1742 41° Northeast 420 483 18,200 -1,080 Descending Boston Center
05:49PM 40.9969 -73.0672 41° Northeast 419 482 16,900 -1,200 Descending Boston Center
05:50PM 41.0992 -73.0606 North 410 472 15,700 -1,200 Descending Boston Center
05:51PM 41.1908 -73.1342 329° Northwest 395 455 14,400 -2,100 Descending Boston Center
05:52PM 41.2944 -73.2167 329° Northwest 372 428 11,500 -1,740 Descending Boston Center
05:53PM 41.3750 -73.2833 328° Northwest 349 402 10,900 -300 Descending Boston Center
05:55PM 41.4489 -73.3431 329° Northwest 296 341 10,900  Level Boston Center
05:56PM 41.5186 -73.3992 329° Northwest 294 338 10,900 -180 Level Boston Center
05:57PM 41.5889 -73.4556 329° Northwest 294 338 10,600 -1,320 Descending Boston Center
05:58PM 41.6631 -73.5150 329° Northwest 293 337 8,300 -2,100 Descending Boston Center
05:59PM 41.7289 -73.5675 329° Northwest 279 321 6,200 -1,620 Descending Boston Center
06:00PM 41.7333 -73.7000 273° West 260 299 4,000 -840 Descending New York TRACON
06:01PM 41.6833 -73.7667 225° Southwest 254 292 4,000 -300 Level New York TRACON
06:02PM 41.6333 -73.8333 225° Southwest 244 281 3,500 -540 Descending New York TRACON
06:03PM 41.5833 -73.8833 217° Southwest 216 249 3,000 -420 Descending New York TRACON
06:04PM 41.5500 -73.9500 236° Southwest 203 234 2,700 -480 Descending New York TRACON
06:05PM 41.5167 -74.0000 228° Southwest 199 229 2,200 -900 Descending New York TRACON
06:06PM 41.5167 -74.0667 270° West 149 171 1,000 -1,200 Descending New York TRACON